Time;durP1;ratioP1;P1;durP2;ratioP2;P2;SDS_P1;SDS_P2;PMS_P1;PMS_P2;Temp;Humidity;BMP_temperature;BMP_pressure;BME280_temperature;BME280_humidity;BME280_pressure;Samples;Min_cycle;Max_cycle;Signal;HPM_P1;HPM_P2
2023/08/14 00:01:03;;;;;;;7.00;4.40;;;;;;;-145.18;100.00;46660.41;5024604;28;20131;-64
2023/08/14 00:03:28;;;;;;;9.07;4.47;;;;;;;-145.18;100.00;46660.41;5018464;28;20030;-60
2023/08/14 00:05:53;;;;;;;7.07;4.07;;;;;;;-145.18;100.00;46660.41;5016395;28;20044;-61
2023/08/14 00:08:19;;;;;;;7.47;4.43;;;;;;;-145.18;100.00;46660.41;5027697;28;20385;-60
2023/08/14 00:10:45;;;;;;;12.57;5.10;;;;;;;-145.18;100.00;46660.41;5016428;28;20025;-60
2023/08/14 00:13:11;;;;;;;8.47;3.77;;;;;;;-145.18;100.00;46660.41;5018905;28;20049;-56
2023/08/14 00:15:36;;;;;;;12.83;4.07;;;;;;;-145.18;100.00;46660.41;5017146;28;20038;-60
2023/08/14 00:18:02;;;;;;;5.60;3.97;;;;;;;-145.18;100.00;46660.41;5028677;28;20458;-61
2023/08/14 00:20:28;;;;;;;4.77;3.57;;;;;;;-145.18;100.00;46660.41;5024714;28;20073;-61
2023/08/14 00:22:53;;;;;;;8.03;3.77;;;;;;;-145.18;100.00;46660.41;5018125;28;20050;-61
2023/08/14 00:25:18;;;;;;;6.97;4.43;;;;;;;-145.18;100.00;46638.91;5028990;28;20456;-61
2023/08/14 00:27:44;;;;;;;9.00;4.60;;;;;;;-145.18;100.00;46633.06;5019290;28;20036;-60
2023/08/14 00:30:09;;;;;;;6.67;4.17;;;;;;;-145.18;100.00;46660.41;5016054;28;20190;-61
2023/08/14 00:32:35;;;;;;;7.17;5.13;;;;;;;-145.18;100.00;46660.41;5020403;28;20037;-60
2023/08/14 00:35:00;;;;;;;7.50;4.50;;;;;;;-145.18;100.00;46635.00;5015295;28;20034;-61
2023/08/14 00:37:43;;;;;;;6.37;3.57;;;;;;;-145.18;100.00;46633.06;5017015;28;20481;-60
2023/08/14 00:40:10;;;;;;;5.10;3.70;;;;;;;-145.18;100.00;46635.00;5030905;28;21571;-61
2023/08/14 00:42:38;;;;;;;7.73;4.63;;;;;;;-145.18;100.00;46633.06;5017324;28;20034;-60
2023/08/14 00:45:04;;;;;;;6.33;3.57;;;;;;;-145.18;100.00;46660.41;5022476;28;20030;-60
2023/08/14 00:47:29;;;;;;;7.67;4.53;;;;;;;-145.18;100.00;46660.41;5028861;28;20026;-60
2023/08/14 00:49:55;;;;;;;7.37;4.37;;;;;;;-145.18;100.00;46660.41;5016296;28;20032;-61
2023/08/14 00:52:21;;;;;;;7.60;4.30;;;;;;;-145.18;100.00;46660.41;5023076;28;20508;-61
2023/08/14 00:54:46;;;;;;;9.23;4.53;;;;;;;-145.18;100.00;46660.41;5023244;28;20033;-61
2023/08/14 00:57:12;;;;;;;7.60;4.37;;;;;;;-145.18;100.00;46660.41;5013404;28;20404;-61
2023/08/14 00:59:37;;;;;;;5.93;4.30;;;;;;;-145.18;100.00;46660.41;5018522;28;20037;-61
2023/08/14 01:02:02;;;;;;;7.73;4.60;;;;;;;-145.18;100.00;46660.41;5016818;28;20034;-61
2023/08/14 01:04:28;;;;;;;13.97;4.90;;;;;;;-145.18;100.00;46660.41;5016438;28;20119;-61
2023/08/14 01:06:53;;;;;;;6.83;4.43;;;;;;;-145.18;100.00;46660.41;5021634;28;20164;-61
2023/08/14 01:09:19;;;;;;;12.03;4.80;;;;;;;-145.18;100.00;46660.41;5027162;28;20494;-61
2023/08/14 01:12:01;;;;;;;7.47;4.53;;;;;;;-145.18;100.00;46660.41;5017276;28;20022;-61
2023/08/14 01:14:31;;;;;;;14.27;5.20;;;;;;;-145.18;100.00;46660.41;5022804;28;20477;-61
2023/08/14 01:17:01;;;;;;;6.43;4.60;;;;;;;-145.18;100.00;46660.41;5023285;28;20156;-61
2023/08/14 01:19:34;;;;;;;8.53;4.67;;;;;;;-145.18;100.00;46660.41;5029833;28;20083;-61
2023/08/14 01:22:09;;;;;;;8.77;4.37;;;;;;;-145.18;100.00;46660.41;5021965;28;20025;-61
2023/08/14 01:24:49;;;;;;;8.80;4.95;;;;;;;-145.18;100.00;46660.41;5030050;28;20038;-61
2023/08/14 01:27:16;;;;;;;8.67;4.30;;;;;;;-145.18;100.00;46660.41;5021129;28;20052;-61
2023/08/14 01:29:42;;;;;;;6.13;3.97;;;;;;;-145.18;100.00;46660.41;5032216;28;20390;-61
2023/08/14 01:32:08;;;;;;;10.37;4.47;;;;;;;-145.18;100.00;46660.41;5028364;28;20120;-61
2023/08/14 01:34:33;;;;;;;6.40;4.23;;;;;;;-145.18;100.00;46660.41;5027623;28;20120;-61
2023/08/14 01:37:16;;;;;;;5.70;4.10;;;;;;;-145.18;100.00;46660.41;5021453;28;20038;-61
2023/08/14 01:39:48;;;;;;;5.77;3.73;;;;;;;-145.18;100.00;46660.41;5022598;28;20040;-61
2023/08/14 01:42:32;;;;;;;5.70;4.30;;;;;;;-145.18;100.00;46660.41;5030603;28;20034;-61
2023/08/14 01:45:02;;;;;;;6.93;3.97;;;;;;;-145.18;100.00;46660.41;5032144;28;20044;-61
2023/08/14 01:47:30;;;;;;;5.00;3.63;;;;;;;-145.18;100.00;46660.41;5032148;28;20044;-61
2023/08/14 01:49:57;;;;;;;8.77;3.93;;;;;;;-145.18;100.00;46660.41;5031119;28;20037;-61
2023/08/14 01:52:23;;;;;;;7.30;3.67;;;;;;;-145.18;100.00;46660.41;5030765;28;20152;-61
2023/08/14 01:54:48;;;;;;;8.63;4.20;;;;;;;-145.18;100.00;46660.41;5031173;28;20059;-61
2023/08/14 01:57:13;;;;;;;6.17;3.80;;;;;;;-145.18;100.00;46660.41;5031390;28;20037;-61
2023/08/14 01:59:44;;;;;;;8.13;3.97;;;;;;;-145.18;100.00;46660.41;5019416;28;20041;-59
2023/08/14 02:02:13;;;;;;;7.53;3.70;;;;;;;-145.18;100.00;46660.41;5020560;28;20036;-61
2023/08/14 02:04:39;;;;;;;7.63;4.00;;;;;;;-145.18;100.00;46660.41;5025090;28;20087;-61
2023/08/14 02:07:05;;;;;;;5.40;3.67;;;;;;;-145.18;100.00;46660.41;5023083;28;20552;-61
2023/08/14 02:09:32;;;;;;;11.60;4.30;;;;;;;-145.18;100.00;46660.41;5024316;28;20032;-61
2023/08/14 02:11:58;;;;;;;7.77;3.67;;;;;;;-145.18;100.00;46660.41;5022940;28;20025;-61
2023/08/14 02:14:24;;;;;;;6.73;3.50;;;;;;;-145.18;100.00;46660.41;5019287;28;20030;-61
2023/08/14 02:16:49;;;;;;;6.10;3.73;;;;;;;-145.18;100.00;46660.41;5030515;28;20024;-61
2023/08/14 02:19:14;;;;;;;7.27;3.53;;;;;;;-145.18;100.00;46660.41;5018845;28;20497;-61
2023/08/14 02:21:40;;;;;;;11.10;4.07;;;;;;;-145.18;100.00;46633.06;5018220;28;20060;-61
2023/08/14 02:24:06;;;;;;;6.37;4.10;;;;;;;-145.18;100.00;46660.41;5018775;28;20104;-61
2023/08/14 02:26:31;;;;;;;7.77;4.13;;;;;;;-145.18;100.00;46660.41;5021464;28;20026;-61
2023/08/14 02:28:57;;;;;;;10.70;4.30;;;;;;;-145.18;100.00;46631.09;5019489;28;20079;-61
2023/08/14 02:31:22;;;;;;;6.60;4.60;;;;;;;-145.18;100.00;46635.00;5016768;28;20034;-61
2023/08/14 02:33:47;;;;;;;6.63;4.73;;;;;;;-145.18;100.00;46635.00;5022514;28;20531;-64
2023/08/14 02:36:13;;;;;;;8.87;4.10;;;;;;;-145.18;100.00;46660.41;5017994;28;20025;-64
2023/08/14 02:38:38;;;;;;;8.40;4.20;;;;;;;-145.18;100.00;46660.41;5016075;28;20095;-64
2023/08/14 02:41:03;;;;;;;5.90;4.03;;;;;;;-145.18;100.00;46660.41;5021711;28;20029;-64
2023/08/14 02:43:30;;;;;;;8.67;4.13;;;;;;;-145.18;100.00;46633.06;5018114;28;20440;-64
2023/08/14 02:45:55;;;;;;;6.13;4.07;;;;;;;-145.18;100.00;46633.06;5023799;28;20029;-64
2023/08/14 02:48:23;;;;;;;8.23;3.60;;;;;;;-145.18;100.00;46633.06;5017419;28;20524;-64
2023/08/14 02:50:48;;;;;;;7.80;3.73;;;;;;;-145.18;100.00;46660.41;5020974;28;20022;-64
2023/08/14 02:53:14;;;;;;;8.13;3.60;;;;;;;-145.18;100.00;46660.41;5021242;28;20514;-64
2023/08/14 02:55:39;;;;;;;5.47;3.43;;;;;;;-145.18;100.00;46660.41;5024371;28;20600;-64
2023/08/14 02:58:04;;;;;;;6.23;3.70;;;;;;;-145.18;100.00;46660.41;5026773;28;20026;-64
2023/08/14 03:00:30;;;;;;;5.13;3.33;;;;;;;-145.18;100.00;46636.94;5024814;28;20037;-64
2023/08/14 03:02:55;;;;;;;6.57;3.60;;;;;;;-145.18;100.00;46633.06;5026380;28;20029;-64
2023/08/14 03:05:20;;;;;;;6.70;4.23;;;;;;;-145.18;100.00;46633.06;5024435;28;20057;-64
2023/08/14 03:07:46;;;;;;;9.67;4.53;;;;;;;-145.18;100.00;46660.41;5026636;28;20034;-64
2023/08/14 03:10:12;;;;;;;6.30;4.00;;;;;;;-145.18;100.00;46633.06;5023894;28;20014;-64
2023/08/14 03:12:37;;;;;;;10.33;4.40;;;;;;;-145.18;100.00;46635.00;5026913;28;20120;-64
2023/08/14 03:15:04;;;;;;;5.20;4.30;;;;;;;-145.18;100.00;46638.91;5016963;28;20055;-64
2023/08/14 03:17:30;;;;;;;6.87;4.53;;;;;;;-145.18;100.00;46633.06;5025322;28;20188;-64
2023/08/14 03:19:55;;;;;;;6.20;4.47;;;;;;;-145.18;100.00;46636.94;5023230;28;20481;-64
2023/08/14 03:22:20;;;;;;;5.97;4.20;;;;;;;-145.18;100.00;46638.91;5035602;28;20068;-64
2023/08/14 03:24:46;;;;;;;6.83;4.37;;;;;;;-145.18;100.00;46640.88;5030686;28;20030;-64
2023/08/14 03:27:11;;;;;;;8.53;4.30;;;;;;;-145.18;100.00;46638.91;5031485;28;20084;-64
2023/08/14 03:29:36;;;;;;;9.83;4.30;;;;;;;-145.18;100.00;46640.88;5027670;28;20477;-64
2023/08/14 03:32:02;;;;;;;6.63;4.57;;;;;;;-145.18;100.00;46635.00;5027457;28;20037;-64
2023/08/14 03:34:27;;;;;;;6.07;4.13;;;;;;;-145.18;100.00;46635.00;5022707;28;20065;-64
2023/08/14 03:36:53;;;;;;;8.20;4.60;;;;;;;-145.18;100.00;46633.06;5034413;28;20037;-64
2023/08/14 03:39:18;;;;;;;5.50;3.47;;;;;;;-145.18;100.00;46660.41;5028989;28;20618;-64
2023/08/14 03:41:44;;;;;;;8.93;4.10;;;;;;;-145.18;100.00;46636.94;5016256;28;20063;-64
2023/08/14 03:44:10;;;;;;;8.90;4.20;;;;;;;-145.18;100.00;46635.00;5021328;28;20029;-64
2023/08/14 03:46:35;;;;;;;4.97;3.57;;;;;;;-145.18;100.00;46660.41;5028870;28;20474;-65
2023/08/14 03:49:00;;;;;;;7.63;4.17;;;;;;;-145.18;100.00;46633.06;5018979;28;20030;-64
2023/08/14 03:51:26;;;;;;;6.63;4.47;;;;;;;-145.18;100.00;46660.41;5020885;28;20100;-64
2023/08/14 03:53:51;;;;;;;6.13;4.03;;;;;;;-145.18;100.00;46635.00;5018775;28;20469;-64
2023/08/14 03:56:16;;;;;;;8.47;3.87;;;;;;;-145.18;100.00;46638.91;5030331;28;20060;-64
2023/08/14 03:58:42;;;;;;;5.20;3.90;;;;;;;-145.18;100.00;46635.00;5018536;28;20037;-64
2023/08/14 04:01:07;;;;;;;5.77;3.77;;;;;;;-145.18;100.00;46635.00;5031616;28;20041;-64
2023/08/14 04:03:33;;;;;;;6.97;3.90;;;;;;;-145.18;100.00;46660.41;5025285;28;20084;-64
2023/08/14 04:05:58;;;;;;;7.17;4.00;;;;;;;-145.18;100.00;46636.94;5025015;28;20056;-64
2023/08/14 04:08:23;;;;;;;5.47;3.60;;;;;;;-145.18;100.00;46633.06;5018356;28;20033;-64
2023/08/14 04:10:54;;;;;;;6.07;3.90;;;;;;;-145.18;100.00;46636.94;5028344;28;20037;-64
2023/08/14 04:13:19;;;;;;;9.43;3.20;;;;;;;-145.18;100.00;46636.94;5018667;28;20076;-64
2023/08/14 04:15:45;;;;;;;5.63;3.17;;;;;;;-145.18;100.00;46635.00;5021720;28;20389;-64
2023/08/14 04:18:10;;;;;;;6.47;3.57;;;;;;;-145.18;100.00;46638.91;5028066;28;20025;-64
2023/08/14 04:20:36;;;;;;;6.57;3.30;;;;;;;-145.18;100.00;46633.06;5022208;28;20506;-64
2023/08/14 04:23:01;;;;;;;5.87;3.63;;;;;;;-145.18;100.00;46638.91;5026036;28;20146;-64
2023/08/14 04:25:28;;;;;;;5.27;3.20;;;;;;;-145.18;100.00;46640.88;5028435;28;20090;-64
2023/08/14 04:27:54;;;;;;;7.47;3.67;;;;;;;-145.18;100.00;46636.94;5031815;28;20164;-64
2023/08/14 04:30:19;;;;;;;4.83;3.60;;;;;;;-145.18;100.00;46633.06;5034324;28;20061;-64
2023/08/14 04:32:45;;;;;;;6.00;3.47;;;;;;;-145.18;100.00;46633.06;5030926;28;20116;-64
2023/08/14 04:35:11;;;;;;;9.57;3.67;;;;;;;-145.18;100.00;46636.94;5027332;28;20090;-64
2023/08/14 04:37:36;;;;;;;8.90;4.37;;;;;;;-145.18;100.00;46660.41;5022122;28;20032;-64
2023/08/14 04:40:04;;;;;;;7.50;4.07;;;;;;;-145.18;100.00;46635.00;5026236;28;20037;-64
2023/08/14 04:42:30;;;;;;;7.53;4.47;;;;;;;-145.18;100.00;46631.09;5031795;28;20082;-64
2023/08/14 04:44:55;;;;;;;7.87;4.87;;;;;;;-145.18;100.00;46631.09;5031783;28;20490;-64
2023/08/14 04:47:21;;;;;;;10.07;4.83;;;;;;;-145.18;100.00;46636.94;5021026;28;20089;-64
2023/08/14 04:49:46;;;;;;;9.43;4.77;;;;;;;-145.18;100.00;46631.09;5026395;28;20533;-64
2023/08/14 04:52:11;;;;;;;7.43;4.63;;;;;;;-145.18;100.00;46635.00;5021073;28;20026;-64
2023/08/14 04:54:37;;;;;;;6.50;4.60;;;;;;;-145.18;100.00;46635.00;5021007;28;20116;-61
2023/08/14 04:57:02;;;;;;;10.53;5.40;;;;;;;-145.18;100.00;46629.13;5019258;28;20116;-61
2023/08/14 04:59:28;;;;;;;9.33;5.20;;;;;;;-145.18;100.00;46629.13;5025738;28;20120;-61
2023/08/14 05:01:53;;;;;;;8.20;5.10;;;;;;;-145.18;100.00;46627.19;5022345;28;20043;-61
2023/08/14 05:04:19;;;;;;;10.30;5.67;;;;;;;-145.18;100.00;46629.13;5024792;28;20397;-61
2023/08/14 05:06:45;;;;;;;10.87;5.93;;;;;;;-145.18;100.00;46633.06;5023965;28;20061;-61
2023/08/14 05:09:10;;;;;;;11.93;5.83;;;;;;;-145.18;100.00;46629.13;5030700;28;20029;-61
2023/08/14 05:11:35;;;;;;;7.13;5.23;;;;;;;-145.18;100.00;46633.06;5026172;28;21331;-61
2023/08/14 05:14:01;;;;;;;8.03;5.80;;;;;;;-145.18;100.00;46631.09;5027843;28;20041;-61
2023/08/14 05:16:26;;;;;;;13.93;6.53;;;;;;;-145.18;100.00;46635.00;5028354;28;20064;-61
2023/08/14 05:18:52;;;;;;;9.67;5.63;;;;;;;-145.18;100.00;46631.09;5033467;28;20034;-61
2023/08/14 05:21:17;;;;;;;9.53;6.33;;;;;;;-145.18;100.00;46633.06;5031456;28;20034;-61
2023/08/14 05:23:43;;;;;;;13.07;5.93;;;;;;;-145.18;100.00;46631.09;5025249;28;20072;-61
2023/08/14 05:26:08;;;;;;;10.20;6.20;;;;;;;-145.18;100.00;46627.19;5025321;28;20068;-61
2023/08/14 05:28:33;;;;;;;12.20;7.47;;;;;;;-145.18;100.00;46631.09;5019035;28;20393;-61
2023/08/14 05:30:59;;;;;;;11.67;6.60;;;;;;;-145.18;100.00;46629.13;5021768;28;20044;-61
2023/08/14 05:33:24;;;;;;;7.60;6.27;;;;;;;-145.18;100.00;46625.22;5017406;28;20154;-61
2023/08/14 05:35:49;;;;;;;8.90;6.03;;;;;;;-145.18;100.00;46625.22;5017029;28;20493;-61
2023/08/14 05:38:15;;;;;;;12.47;6.13;;;;;;;-145.18;100.00;46627.19;5019655;28;20324;-61
2023/08/14 05:40:40;;;;;;;8.23;6.30;;;;;;;-145.18;100.00;46631.09;5019781;28;20564;-61
2023/08/14 05:43:08;;;;;;;11.03;6.40;;;;;;;-145.18;100.00;46631.09;5023197;28;20026;-61
2023/08/14 05:45:44;;;;;;;11.17;6.63;;;;;;;-145.18;100.00;46631.09;5024644;28;20036;-61
2023/08/14 05:48:11;;;;;;;9.70;6.17;;;;;;;-145.18;100.00;46631.09;5026744;28;20025;-61
2023/08/14 05:50:36;;;;;;;9.00;6.40;;;;;;;-145.18;100.00;46627.19;5026305;28;20037;-61
2023/08/14 05:53:04;;;;;;;11.40;5.90;;;;;;;-145.18;100.00;46629.13;5019713;28;20021;-61
2023/08/14 05:55:33;;;;;;;9.53;5.90;;;;;;;-145.18;100.00;46627.19;5022307;28;20029;-61
2023/08/14 05:57:59;;;;;;;8.00;5.90;;;;;;;-145.18;100.00;46627.19;5024866;28;20037;-61
2023/08/14 06:00:25;;;;;;;9.53;6.60;;;;;;;-145.18;100.00;46623.28;5026803;28;20044;-61
2023/08/14 06:02:51;;;;;;;8.83;6.57;;;;;;;-145.18;100.00;46621.31;5028310;28;20045;-65
2023/08/14 06:05:16;;;;;;;10.67;7.23;;;;;;;-145.18;100.00;46625.22;5029286;28;20055;-64
2023/08/14 06:07:41;;;;;;;13.07;7.43;;;;;;;-145.18;100.00;46623.28;5021806;28;20454;-65
2023/08/14 06:10:07;;;;;;;11.73;7.70;;;;;;;-145.18;100.00;46627.19;5019676;28;20029;-64
2023/08/14 06:12:33;;;;;;;13.67;8.03;;;;;;;-145.18;100.00;46623.28;5029370;28;20160;-64
2023/08/14 06:14:58;;;;;;;12.90;7.33;;;;;;;-145.18;100.00;46625.22;5027467;28;20029;-64
2023/08/14 06:17:25;;;;;;;13.33;7.80;;;;;;;-145.18;100.00;46621.31;5017452;28;20041;-64
2023/08/14 06:19:50;;;;;;;12.67;7.47;;;;;;;-145.18;100.00;46627.19;5021486;28;20034;-64
2023/08/14 06:22:17;;;;;;;12.73;7.00;;;;;;;-145.18;100.00;46623.28;5028784;28;20041;-65
2023/08/14 06:24:43;;;;;;;12.37;7.57;;;;;;;-145.18;100.00;46627.19;5025053;28;20488;-65
2023/08/14 06:27:09;;;;;;;9.63;6.80;;;;;;;-145.18;100.00;46627.19;5024179;28;20043;-64
2023/08/14 06:29:34;;;;;;;11.07;7.43;;;;;;;-145.18;100.00;46627.19;5030490;28;20404;-65
2023/08/14 06:32:00;;;;;;;11.73;7.83;;;;;;;-145.18;100.00;46627.19;5032515;28;20033;-64
2023/08/14 06:34:26;;;;;;;12.97;7.90;;;;;;;-145.18;100.00;46629.13;5024173;28;20064;-65
2023/08/14 06:36:52;;;;;;;13.00;8.17;;;;;;;-145.18;100.00;46629.13;5018336;28;20057;-65
2023/08/14 06:39:17;;;;;;;18.50;8.63;;;;;;;-145.18;100.00;46629.13;5029577;28;20037;-64
2023/08/14 06:41:42;;;;;;;15.67;8.27;;;;;;;-145.18;100.00;46625.22;5023862;28;20080;-65
2023/08/14 06:44:11;;;;;;;15.97;8.77;;;;;;;-145.18;100.00;46629.13;5024915;28;20045;-64
2023/08/14 06:46:37;;;;;;;13.03;8.43;;;;;;;-145.18;100.00;46625.22;5020292;28;20058;-65
2023/08/14 06:49:02;;;;;;;9.50;8.03;;;;;;;-145.18;100.00;46631.09;5030337;28;20145;-64
2023/08/14 06:51:28;;;;;;;14.90;8.57;;;;;;;-145.18;100.00;46633.06;5026466;28;20549;-64
2023/08/14 06:53:53;;;;;;;11.93;8.43;;;;;;;-145.18;100.00;46633.06;5031194;28;20029;-64
2023/08/14 06:56:19;;;;;;;15.27;9.03;;;;;;;-145.18;100.00;46629.13;5020874;28;20064;-64
2023/08/14 06:58:44;;;;;;;14.60;8.57;;;;;;;-145.18;100.00;46629.13;5027828;28;20128;-64
2023/08/14 07:01:10;;;;;;;11.80;8.00;;;;;;;-145.18;100.00;46631.09;5023689;28;20021;-64
2023/08/14 07:03:35;;;;;;;12.07;8.40;;;;;;;-145.18;100.00;46631.09;5025098;28;20029;-65
2023/08/14 07:06:00;;;;;;;10.90;8.03;;;;;;;-145.18;100.00;46627.19;5023346;28;20079;-65
2023/08/14 07:08:28;;;;;;;13.27;8.67;;;;;;;-145.18;100.00;46625.22;5025211;28;20029;-65
2023/08/14 07:10:53;;;;;;;12.93;9.13;;;;;;;-145.18;100.00;46629.13;5017927;28;20032;-65
2023/08/14 07:13:19;;;;;;;14.10;9.23;;;;;;;-145.18;100.00;46627.19;5023521;28;20401;-61
2023/08/14 07:15:47;;;;;;;18.57;8.53;;;;;;;-145.18;100.00;46623.28;5030684;28;20082;-61
2023/08/14 07:18:14;;;;;;;10.80;7.43;;;;;;;-145.18;100.00;46625.22;5023966;28;20485;-61
2023/08/14 07:20:40;;;;;;;13.10;7.60;;;;;;;-145.18;100.00;46633.06;5018802;28;20026;-61
2023/08/14 07:23:05;;;;;;;12.13;7.33;;;;;;;-145.18;100.00;46633.06;5028003;28;20060;-61
2023/08/14 07:25:31;;;;;;;10.80;6.73;;;;;;;-145.18;100.00;46640.88;5024071;28;20038;-61
2023/08/14 07:27:56;;;;;;;9.13;6.27;;;;;;;-145.18;100.00;46636.94;5024544;28;20061;-61
2023/08/14 07:30:23;;;;;;;12.23;7.07;;;;;;;-145.18;100.00;46638.91;5024504;28;20116;-61
2023/08/14 07:32:48;;;;;;;12.57;6.43;;;;;;;-145.18;100.00;46644.78;5021597;28;20112;-62
2023/08/14 07:35:13;;;;;;;9.03;5.97;;;;;;;-145.18;100.00;46648.69;5026564;28;20079;-61
2023/08/14 07:37:39;;;;;;;8.37;6.40;;;;;;;-145.18;100.00;46642.81;5021005;28;20446;-61
2023/08/14 07:40:06;;;;;;;9.33;6.47;;;;;;;-145.18;100.00;46644.78;5025353;28;20065;-61
2023/08/14 07:42:32;;;;;;;12.57;5.73;;;;;;;-145.18;100.00;46644.78;5020038;28;20117;-61
2023/08/14 07:44:57;;;;;;;8.90;5.60;;;;;;;-145.18;100.00;46652.59;5029342;28;20117;-61
2023/08/14 07:47:23;;;;;;;7.97;5.23;;;;;;;-145.18;100.00;46648.69;5021043;28;20038;-61
2023/08/14 07:49:48;;;;;;;9.80;5.13;;;;;;;-145.18;100.00;46650.63;5021290;28;20029;-61
2023/08/14 07:52:13;;;;;;;6.40;4.73;;;;;;;-145.18;100.00;46654.53;5021706;28;20037;-61
2023/08/14 07:54:39;;;;;;;6.97;4.57;;;;;;;-145.18;100.00;46652.59;5025695;28;20049;-61
2023/08/14 07:57:04;;;;;;;10.30;4.97;;;;;;;-145.18;100.00;46660.41;5017040;28;20049;-61
2023/08/14 07:59:30;;;;;;;8.57;5.40;;;;;;;-145.18;100.00;46664.31;5016762;28;20036;-61
2023/08/14 08:01:55;;;;;;;7.83;4.43;;;;;;;-145.18;100.00;46662.34;5028028;28;20028;-61
2023/08/14 08:04:20;;;;;;;7.93;4.57;;;;;;;-145.18;100.00;46660.41;5027331;28;20044;-61
2023/08/14 08:06:46;;;;;;;9.53;4.83;;;;;;;-145.18;100.00;46658.44;5021778;28;20026;-61
2023/08/14 08:09:12;;;;;;;8.67;5.17;;;;;;;-145.18;100.00;46668.22;5025916;28;20136;-61
2023/08/14 08:11:37;;;;;;;7.40;5.07;;;;;;;-145.18;100.00;46662.34;5029206;28;20025;-61
2023/08/14 08:14:05;;;;;;;13.60;5.53;;;;;;;-145.18;100.00;46660.41;5026731;28;20040;-62
2023/08/14 08:16:34;;;;;;;12.43;4.97;;;;;;;-145.18;100.00;46656.50;5028454;28;20489;-61
2023/08/14 08:19:02;;;;;;;8.67;5.03;;;;;;;-145.18;100.00;46662.34;5024262;28;20128;-61
2023/08/14 08:21:27;;;;;;;10.93;5.63;;;;;;;-145.18;100.00;46666.25;5022871;28;20405;-61
2023/08/14 08:23:53;;;;;;;11.07;5.90;;;;;;;-145.18;100.00;46666.25;5028727;28;20058;-61
2023/08/14 08:26:18;;;;;;;10.93;5.70;;;;;;;-145.18;100.00;46668.22;5027938;28;20041;-61
2023/08/14 08:28:44;;;;;;;10.27;5.30;;;;;;;-145.18;100.00;46670.16;5028164;28;20396;-61
2023/08/14 08:31:09;;;;;;;10.57;5.20;;;;;;;-145.18;100.00;46664.31;5021824;28;20056;-61
2023/08/14 08:33:35;;;;;;;12.07;5.27;;;;;;;-145.18;100.00;46672.13;5040928;28;20038;-61
2023/08/14 08:36:00;;;;;;;12.87;4.80;;;;;;;-145.18;100.00;46670.16;5023237;28;20037;-61
2023/08/14 08:38:25;;;;;;;9.13;4.83;;;;;;;-145.18;100.00;46666.25;5018708;28;20049;-61
2023/08/14 08:40:51;;;;;;;10.13;5.97;;;;;;;-145.18;100.00;46666.25;5022263;28;20037;-61
2023/08/14 08:43:19;;;;;;;7.70;5.10;;;;;;;-145.18;100.00;46672.13;5025629;28;20237;-61
2023/08/14 08:45:50;;;;;;;11.13;5.73;;;;;;;-145.18;100.00;46672.13;5020046;28;20034;-61
2023/08/14 08:48:20;;;;;;;9.90;5.10;;;;;;;-145.18;100.00;46672.13;5020268;28;20021;-62
2023/08/14 08:50:47;;;;;;;7.67;4.60;;;;;;;-145.18;100.00;46674.06;5029959;28;20102;-61
2023/08/14 08:53:14;;;;;;;13.13;4.40;;;;;;;-145.18;100.00;46676.03;5020651;28;20033;-61
2023/08/14 08:55:39;;;;;;;7.80;3.60;;;;;;;-145.18;100.00;46674.06;5017327;28;20076;-61
2023/08/14 08:58:06;;;;;;;8.70;4.03;;;;;;;-145.18;100.00;46677.97;5021457;28;20037;-61
2023/08/14 09:00:32;;;;;;;8.13;3.97;;;;;;;-145.18;100.00;46679.94;5043278;28;20037;-61
2023/08/14 09:02:57;;;;;;;8.03;4.10;;;;;;;-145.18;100.00;46683.84;5021497;28;20108;-61
2023/08/14 09:05:23;;;;;;;6.73;3.23;;;;;;;-145.18;100.00;46681.88;5016781;28;20120;-61
2023/08/14 09:07:49;;;;;;;7.40;3.60;;;;;;;-145.18;100.00;46689.69;5041124;28;20508;-61
2023/08/14 09:10:15;;;;;;;5.77;2.73;;;;;;;-145.18;100.00;46652.59;5026215;28;20051;-61
2023/08/14 09:12:41;;;;;;;7.40;2.73;;;;;;;-145.18;100.00;46633.06;5020342;28;20032;-61
2023/08/14 09:15:08;;;;;;;6.60;3.20;;;;;;;-145.18;100.00;46625.22;5016831;28;20032;-61
2023/08/14 09:17:34;;;;;;;5.83;2.83;;;;;;;-145.18;100.00;46574.44;5025793;28;20105;-61
2023/08/14 09:19:59;;;;;;;5.50;2.30;;;;;;;-145.18;100.00;46576.41;5022019;28;20117;-61
2023/08/14 09:22:27;;;;;;;8.47;3.07;;;;;;;-145.18;100.00;46562.72;5018772;28;20469;-61
2023/08/14 09:24:53;;;;;;;7.50;2.63;;;;;;;-145.18;100.00;46554.91;5025682;28;20505;-61
2023/08/14 09:27:19;;;;;;;10.33;3.10;;;;;;;-145.18;100.00;46562.72;5026907;28;20755;-61
2023/08/14 09:29:44;;;;;;;5.43;2.03;;;;;;;-145.18;100.00;46558.81;5027584;28;20037;-61
2023/08/14 09:32:11;;;;;;;9.13;2.67;;;;;;;-145.18;100.00;46566.63;5028452;28;20021;-61
2023/08/14 09:34:37;;;;;;;3.55;2.25;;;;;;;-145.18;100.00;46558.81;5025467;28;20037;-64
2023/08/14 09:37:04;;;;;;;5.90;2.10;;;;;;;-145.18;100.00;46568.59;5016470;28;20034;-65
2023/08/14 09:39:30;;;;;;;9.25;2.45;;;;;;;-145.18;100.00;46564.69;5021055;28;20029;-64
2023/08/14 09:41:55;;;;;;;4.05;1.75;;;;;;;-145.18;100.00;46556.88;5024691;28;20025;-64
2023/08/14 09:44:23;;;;;;;8.25;2.10;;;;;;;-145.18;100.00;46564.69;5023585;28;20034;-64
2023/08/14 09:46:54;;;;;;;4.63;1.70;;;;;;;-145.18;100.00;46580.31;5016931;28;20047;-64
2023/08/14 09:49:20;;;;;;;6.93;2.22;;;;;;;-145.18;100.00;46576.41;5027877;28;20029;-64
2023/08/14 09:51:55;;;;;;;6.57;1.85;;;;;;;-145.18;100.00;46552.97;5019590;28;20540;-64
2023/08/14 09:54:30;;;;;;;6.95;2.35;;;;;;;-145.18;100.00;46576.41;5018286;28;20034;-65
2023/08/14 09:56:59;;;;;;;6.45;1.65;;;;;;;-145.18;100.00;46588.13;5025269;28;20026;-64
2023/08/14 09:59:25;;;;;;;7.30;1.55;;;;;;;-145.18;100.00;46603.75;5028843;28;20033;-64
2023/08/14 10:01:53;;;;;;;5.55;1.30;;;;;;;-145.18;100.00;47160.47;5019116;28;20389;-65
2023/08/14 10:04:22;;;;;;;3.28;1.30;;;;;;;-145.18;100.00;47101.88;5017291;28;20033;-64
2023/08/14 10:06:47;;;;;;;3.85;1.60;;;;;;;-145.18;100.00;47047.19;5026090;28;20034;-64
2023/08/14 10:09:14;;;;;;;4.47;1.52;;;;;;;-145.18;100.00;47056.94;5031035;28;20092;-64
2023/08/14 10:11:40;;;;;;;4.13;1.67;;;;;;;-145.18;100.00;47086.25;5017918;28;20482;-65
2023/08/14 10:14:09;;;;;;;5.25;1.38;;;;;;;-145.18;100.00;47066.72;5022950;28;20052;-65
2023/08/14 10:16:39;;;;;;;6.18;1.45;;;;;;;-145.18;100.00;47078.44;5024964;28;20041;-64
2023/08/14 10:19:09;;;;;;;4.88;1.42;;;;;;;-145.18;100.00;47055.00;5024454;28;20024;-64
2023/08/14 10:21:36;;;;;;;7.80;1.60;;;;;;;-145.18;100.00;47056.94;5026362;28;20044;-64
2023/08/14 10:24:03;;;;;;;4.00;1.40;;;;;;;-145.18;100.00;47094.06;5026457;28;20413;-64
2023/08/14 10:26:30;;;;;;;6.00;1.30;;;;;;;-145.18;100.00;47031.53;5031967;28;20033;-64
2023/08/14 10:28:57;;;;;;;4.72;1.50;;;;;;;-145.18;100.00;47021.78;5026934;28;20477;-64
2023/08/14 10:31:23;;;;;;;3.25;1.50;;;;;;;-145.18;100.00;46994.44;5012502;28;20397;-65
2023/08/14 10:33:49;;;;;;;2.60;1.40;;;;;;;-145.18;100.00;47015.91;5027273;28;20033;-64
2023/08/14 10:36:20;;;;;;;7.00;1.80;;;;;;;-145.18;100.00;47029.59;5030342;28;20036;-64
2023/08/14 10:38:46;;;;;;;4.25;1.63;;;;;;;-145.18;100.00;47043.28;5031462;28;20112;-64
2023/08/14 10:41:14;;;;;;;4.95;1.63;;;;;;;-145.18;100.00;47008.09;5029685;28;20018;-64
2023/08/14 10:43:40;;;;;;;2.92;1.45;;;;;;;-145.18;100.00;46998.34;5030649;28;20112;-61
2023/08/14 10:46:14;;;;;;;4.68;1.23;;;;;;;-145.18;100.00;47013.97;5029245;28;20033;-61
2023/08/14 10:48:41;;;;;;;2.40;1.33;;;;;;;-145.18;100.00;47033.50;5035812;28;20108;-62
2023/08/14 10:51:09;;;;;;;5.45;1.65;;;;;;;-145.18;100.00;47012.00;5038194;28;20084;-61
2023/08/14 10:53:35;;;;;;;3.83;1.45;;;;;;;-145.18;100.00;47029.59;5030906;28;20037;-61
2023/08/14 10:56:01;;;;;;;3.20;1.80;;;;;;;-145.18;100.00;47031.53;5033321;28;20018;-61
2023/08/14 10:58:32;;;;;;;3.63;1.38;;;;;;;-145.18;100.00;47027.63;5037332;28;20430;-61
2023/08/14 11:01:01;;;;;;;2.45;1.17;;;;;;;-145.18;100.00;47019.81;5024596;28;20108;-61
2023/08/14 11:03:28;;;;;;;5.95;1.33;;;;;;;-145.18;100.00;47019.81;5016430;28;20021;-61